createdAt,value
2022-10-18T00:02:07.996Z,99.90
2022-10-18T00:04:34.892Z,99.90
2022-10-18T00:07:01.600Z,99.90
2022-10-18T00:09:28.435Z,99.90
2022-10-18T00:11:55.362Z,99.90
2022-10-18T00:14:22.120Z,99.90
2022-10-18T00:16:48.890Z,99.90
2022-10-18T00:19:15.781Z,99.90
2022-10-18T00:21:42.505Z,99.90
2022-10-18T00:24:09.309Z,99.90
2022-10-18T00:26:36.046Z,99.90
2022-10-18T00:29:04.096Z,99.90
2022-10-18T00:31:31.934Z,99.90
2022-10-18T00:33:59.531Z,99.90
2022-10-18T00:36:26.542Z,99.90
2022-10-18T00:38:53.332Z,99.90
2022-10-18T00:41:22.738Z,99.90
2022-10-18T00:43:53.143Z,99.90
2022-10-18T00:46:19.877Z,99.90
2022-10-18T00:48:46.639Z,99.90
2022-10-18T00:51:13.392Z,99.90
2022-10-18T00:53:40.118Z,99.90
2022-10-18T00:56:06.948Z,99.90
2022-10-18T00:58:33.699Z,99.90
2022-10-18T01:01:00.415Z,99.90
2022-10-18T01:03:27.151Z,99.90
2022-10-18T01:05:53.875Z,99.90
2022-10-18T01:08:26.648Z,99.90
2022-10-18T01:10:59.387Z,99.90
2022-10-18T01:13:28.950Z,99.90
2022-10-18T01:16:04.481Z,99.90
2022-10-18T01:18:53.241Z,99.90
2022-10-18T01:21:22.984Z,99.90
2022-10-18T01:23:52.490Z,99.90
2022-10-18T01:26:37.777Z,99.90
2022-10-18T01:29:22.953Z,99.90
2022-10-18T01:32:15.798Z,99.90
2022-10-18T01:34:42.683Z,99.90
2022-10-18T01:37:09.727Z,99.90
2022-10-18T01:39:37.022Z,99.90
2022-10-18T01:42:05.379Z,99.90
2022-10-18T01:44:32.156Z,99.90
2022-10-18T01:46:58.894Z,99.90
2022-10-18T01:49:25.809Z,99.90
2022-10-18T01:51:52.700Z,99.90
2022-10-18T01:54:21.884Z,99.90
2022-10-18T01:56:51.610Z,99.90
2022-10-18T01:59:18.403Z,99.90
2022-10-18T02:02:03.679Z,99.90
2022-10-18T02:04:44.931Z,99.90
2022-10-18T02:07:11.629Z,99.90
2022-10-18T02:09:42.052Z,99.90
2022-10-18T02:12:09.599Z,99.90
2022-10-18T02:14:36.318Z,99.90
2022-10-18T02:17:03.597Z,99.90
2022-10-18T02:19:33.172Z,99.90
2022-10-18T02:22:00.007Z,99.90
2022-10-18T02:24:37.016Z,99.90
2022-10-18T02:27:03.991Z,99.90
2022-10-18T02:29:30.914Z,99.90
2022-10-18T02:32:04.772Z,99.90
2022-10-18T02:34:38.639Z,99.90
2022-10-18T02:37:05.397Z,99.90
2022-10-18T02:39:36.118Z,99.90
2022-10-18T02:42:06.865Z,99.90
2022-10-18T02:44:36.949Z,99.90
2022-10-18T02:47:03.810Z,99.90
2022-10-18T02:49:30.574Z,99.90
2022-10-18T02:51:57.324Z,99.90
2022-10-18T02:54:24.187Z,99.90
2022-10-18T02:56:50.954Z,99.90
2022-10-18T02:59:17.787Z,99.90
2022-10-18T03:01:44.572Z,99.90
2022-10-18T03:04:11.381Z,99.90
2022-10-18T03:06:38.167Z,99.90
2022-10-18T03:09:05.160Z,99.90
2022-10-18T03:11:32.133Z,99.90
2022-10-18T03:13:58.858Z,99.90
2022-10-18T03:16:25.589Z,99.90
2022-10-18T03:18:52.390Z,99.90
2022-10-18T03:21:19.126Z,99.90
2022-10-18T03:23:45.856Z,99.90
2022-10-18T03:26:12.592Z,99.90
2022-10-18T03:28:39.398Z,99.90
2022-10-18T03:31:06.190Z,99.90
2022-10-18T03:33:33.092Z,99.90
2022-10-18T03:35:59.864Z,99.90
2022-10-18T03:38:26.595Z,99.90
2022-10-18T03:40:53.326Z,99.90
2022-10-18T03:43:20.181Z,99.90
2022-10-18T03:45:46.902Z,99.90
2022-10-18T03:48:13.713Z,99.90
2022-10-18T03:50:40.458Z,99.90
2022-10-18T03:53:07.215Z,99.90
2022-10-18T03:55:33.964Z,99.90
2022-10-18T03:58:00.712Z,99.90
2022-10-18T04:00:27.432Z,99.90
2022-10-18T04:02:55.934Z,99.90
2022-10-18T04:05:27.927Z,99.90
2022-10-18T04:07:55.061Z,99.90
2022-10-18T04:10:21.922Z,99.90
2022-10-18T04:12:48.655Z,99.90
2022-10-18T04:15:15.370Z,99.90
2022-10-18T04:17:42.219Z,99.90
2022-10-18T04:20:09.246Z,99.90
2022-10-18T04:22:35.996Z,99.90
2022-10-18T04:25:02.738Z,99.90
2022-10-18T04:27:29.793Z,99.90
2022-10-18T04:29:56.709Z,99.90
2022-10-18T04:32:23.496Z,99.90
2022-10-18T04:34:50.215Z,99.90
2022-10-18T04:37:17.407Z,99.90
2022-10-18T04:39:49.913Z,99.90
2022-10-18T04:42:19.535Z,99.90
2022-10-18T04:44:46.428Z,99.90
2022-10-18T04:47:13.205Z,99.90
2022-10-18T04:49:39.963Z,99.90
2022-10-18T04:52:06.805Z,99.90
2022-10-18T04:54:33.543Z,99.90
2022-10-18T04:57:00.330Z,99.90
2022-10-18T04:59:27.052Z,99.90
2022-10-18T05:01:53.892Z,99.90
2022-10-18T05:04:20.749Z,99.90
2022-10-18T05:06:47.506Z,99.90
2022-10-18T05:09:14.275Z,99.90
2022-10-18T05:11:41.028Z,99.90
2022-10-18T05:14:10.201Z,99.90
2022-10-18T05:16:36.945Z,99.90
2022-10-18T05:19:04.955Z,99.90
2022-10-18T05:21:32.208Z,99.90
2022-10-18T05:23:58.960Z,99.90
2022-10-18T05:26:25.701Z,99.90
2022-10-18T05:28:52.505Z,99.90
2022-10-18T05:31:19.301Z,99.90
2022-10-18T05:33:46.035Z,99.90
2022-10-18T05:36:12.742Z,99.90
2022-10-18T05:38:42.286Z,99.90
2022-10-18T05:41:09.306Z,99.90
2022-10-18T05:43:36.040Z,99.90
2022-10-18T05:46:02.963Z,99.90
2022-10-18T05:48:29.748Z,99.90
2022-10-18T05:51:00.023Z,99.90
2022-10-18T05:53:42.176Z,99.90
2022-10-18T05:56:09.076Z,99.90
2022-10-18T05:58:35.810Z,99.90
2022-10-18T06:01:02.575Z,99.90
2022-10-18T06:03:30.936Z,99.90
2022-10-18T06:06:00.967Z,99.90
2022-10-18T06:08:27.734Z,99.90
2022-10-18T06:10:54.557Z,99.90
2022-10-18T06:13:21.291Z,99.90
2022-10-18T06:15:48.072Z,99.90
2022-10-18T06:18:14.834Z,99.90
2022-10-18T06:20:41.531Z,99.90
2022-10-18T06:23:08.313Z,99.90
2022-10-18T06:25:35.118Z,99.90
2022-10-18T06:28:01.869Z,99.90
2022-10-18T06:30:28.632Z,99.90
2022-10-18T06:32:58.901Z,99.90
2022-10-18T06:35:25.682Z,99.90
2022-10-18T06:37:52.386Z,96.60
2022-10-18T06:40:19.134Z,92.80
2022-10-18T06:42:55.292Z,90.10
2022-10-18T06:45:33.429Z,82.90
2022-10-18T06:48:00.302Z,76.80
2022-10-18T06:50:27.243Z,75.10
2022-10-18T06:52:54.011Z,73.30
2022-10-18T06:55:20.733Z,72.60
2022-10-18T06:57:47.439Z,70.70
2022-10-18T07:00:14.570Z,69.80
2022-10-18T07:02:41.451Z,69.30
2022-10-18T07:05:08.908Z,67.60
2022-10-18T07:07:35.849Z,64.50
2022-10-18T07:10:02.888Z,64.30
2022-10-18T07:12:29.661Z,63.40
2022-10-18T07:14:56.392Z,61.60
2022-10-18T07:17:23.143Z,59.80
2022-10-18T07:19:49.955Z,59.80
2022-10-18T07:22:16.729Z,59.60
2022-10-18T07:24:43.500Z,58.70
2022-10-18T07:27:10.268Z,57.20
2022-10-18T07:29:40.218Z,57.50
2022-10-18T07:32:06.995Z,56.40
2022-10-18T07:34:33.731Z,56.00
2022-10-18T07:37:01.618Z,55.80
2022-10-18T07:39:28.366Z,55.20
2022-10-18T07:41:55.109Z,54.50
2022-10-18T07:44:21.839Z,53.30
2022-10-18T07:46:48.600Z,53.00
2022-10-18T07:49:15.430Z,52.70
2022-10-18T07:51:42.169Z,53.00
2022-10-18T07:54:08.928Z,52.40
2022-10-18T07:56:35.647Z,51.00
2022-10-18T07:59:02.708Z,51.30
2022-10-18T08:01:29.609Z,51.20
2022-10-18T08:03:56.470Z,49.80
2022-10-18T08:06:23.341Z,49.90
2022-10-18T08:08:50.166Z,49.30
2022-10-18T08:11:17.934Z,49.10
2022-10-18T08:13:44.727Z,49.20
2022-10-18T08:16:12.726Z,49.40
2022-10-18T08:18:39.681Z,48.30
2022-10-18T08:21:07.363Z,48.50
2022-10-18T08:23:34.209Z,49.40
2022-10-18T08:26:01.548Z,48.90
2022-10-18T08:28:28.384Z,48.10
2022-10-18T08:30:55.139Z,47.90
2022-10-18T08:33:21.858Z,48.20
2022-10-18T08:35:55.562Z,48.10
2022-10-18T08:38:22.347Z,48.10
2022-10-18T08:40:49.161Z,48.50
2022-10-18T08:43:21.671Z,47.10
2022-10-18T08:45:48.695Z,47.30
2022-10-18T08:48:42.050Z,46.70
2022-10-18T08:51:13.232Z,46.70
2022-10-18T08:53:41.098Z,46.90
2022-10-18T08:56:14.708Z,47.50
2022-10-18T08:58:42.609Z,46.50
2022-10-18T09:01:28.082Z,45.80
2022-10-18T09:04:01.454Z,45.80
2022-10-18T09:06:31.198Z,46.10
2022-10-18T09:08:58.061Z,47.20
2022-10-18T09:11:24.867Z,46.20
2022-10-18T09:13:58.046Z,44.60
2022-10-18T09:16:30.854Z,45.00
2022-10-18T09:19:07.621Z,44.70
2022-10-18T09:21:53.522Z,44.80
2022-10-18T09:24:27.710Z,44.20
2022-10-18T09:26:57.795Z,44.10
2022-10-18T09:29:46.713Z,44.30
2022-10-18T09:32:19.502Z,44.40
2022-10-18T09:34:53.346Z,44.00
2022-10-18T09:37:20.246Z,44.90
2022-10-18T09:39:47.196Z,44.20
2022-10-18T09:42:30.768Z,43.60
2022-10-18T09:45:02.294Z,43.90
2022-10-18T09:47:37.159Z,44.00
2022-10-18T09:50:08.535Z,44.70
2022-10-18T09:52:39.826Z,43.70
2022-10-18T09:55:13.031Z,44.00
2022-10-18T09:57:41.573Z,43.90
2022-10-18T10:00:19.333Z,44.80
2022-10-18T10:02:46.144Z,43.80
2022-10-18T10:05:13.300Z,42.80
2022-10-18T10:07:43.835Z,44.10
2022-10-18T10:10:13.599Z,43.50
2022-10-18T10:12:40.370Z,42.90
2022-10-18T10:15:18.073Z,43.20
2022-10-18T10:17:45.623Z,43.30
2022-10-18T10:20:19.317Z,43.30
2022-10-18T10:22:46.953Z,44.10
2022-10-18T10:25:40.939Z,44.10
2022-10-18T10:28:13.774Z,43.40
2022-10-18T10:30:40.533Z,42.90
2022-10-18T10:33:09.949Z,42.40
2022-10-18T10:35:53.817Z,42.60
2022-10-18T10:38:24.958Z,42.50
2022-10-18T10:40:51.773Z,42.10
2022-10-18T10:43:36.344Z,42.40
2022-10-18T10:46:03.695Z,41.60
2022-10-18T10:49:00.606Z,42.40
2022-10-18T10:51:40.441Z,41.70
2022-10-18T10:54:13.663Z,41.70
2022-10-18T10:56:57.653Z,42.40
2022-10-18T10:59:26.324Z,43.40
2022-10-18T11:02:11.654Z,45.10
2022-10-18T11:04:38.723Z,46.00
2022-10-18T11:07:13.797Z,47.10
2022-10-18T11:09:59.405Z,47.60
2022-10-18T11:12:38.603Z,48.00
2022-10-18T11:15:14.205Z,48.50
2022-10-18T11:17:40.988Z,48.20
2022-10-18T11:20:09.695Z,49.40
2022-10-18T11:22:38.807Z,50.20
2022-10-18T11:25:05.743Z,51.60
2022-10-18T11:27:36.596Z,52.10
2022-10-18T11:30:22.153Z,52.10
2022-10-18T11:32:51.694Z,52.90
2022-10-18T11:35:38.886Z,53.10
2022-10-18T11:38:08.554Z,53.30
2022-10-18T11:41:01.371Z,53.60
2022-10-18T11:44:01.605Z,54.20
2022-10-18T11:46:33.104Z,54.40
2022-10-18T11:49:07.356Z,54.60
2022-10-18T11:52:03.583Z,54.40
2022-10-18T11:54:48.934Z,54.80
2022-10-18T11:57:15.680Z,54.10
2022-10-18T12:00:03.935Z,55.20
2022-10-18T12:02:31.185Z,55.60
2022-10-18T12:07:53.942Z,56.00
2022-10-18T12:10:31.427Z,56.60
2022-10-18T12:13:07.796Z,57.10
2022-10-18T12:15:35.622Z,57.50
2022-10-18T12:18:06.655Z,58.00
2022-10-18T12:20:34.136Z,58.30
2022-10-18T12:23:04.817Z,59.10
2022-10-18T12:25:36.022Z,58.90
2022-10-18T12:28:04.399Z,58.80
2022-10-18T12:30:37.207Z,58.60
2022-10-18T12:33:28.671Z,58.80
2022-10-18T12:36:14.631Z,58.90
2022-10-18T12:38:42.104Z,58.90
2022-10-18T12:41:11.678Z,58.00
2022-10-18T12:43:38.445Z,58.80
2022-10-18T12:46:10.745Z,59.00
2022-10-18T12:48:42.689Z,58.80
2022-10-18T12:51:16.439Z,59.20
2022-10-18T12:53:45.261Z,59.10
2022-10-18T12:56:31.044Z,58.70
2022-10-18T12:59:15.884Z,58.70
2022-10-18T13:01:52.036Z,58.70
2022-10-18T13:04:27.765Z,58.70
2022-10-18T13:06:57.302Z,58.60
2022-10-18T13:09:27.576Z,58.60
2022-10-18T13:11:58.595Z,58.50
2022-10-18T13:14:30.958Z,58.20
2022-10-18T13:17:03.406Z,58.40
2022-10-18T13:19:41.341Z,58.20
2022-10-18T13:22:11.061Z,58.40
2022-10-18T13:24:37.804Z,58.10
2022-10-18T13:27:35.660Z,58.40
2022-10-18T13:30:15.962Z,58.70
2022-10-18T13:32:45.792Z,58.90
2022-10-18T13:35:31.027Z,59.20
2022-10-18T13:37:58.904Z,59.30
2022-10-18T13:40:25.657Z,59.40
2022-10-18T13:42:52.409Z,59.70
2022-10-18T13:45:31.545Z,59.70
2022-10-18T13:48:16.794Z,60.20
2022-10-18T13:50:43.540Z,60.10
2022-10-18T13:53:13.295Z,60.00
2022-10-18T13:56:12.265Z,59.90
2022-10-18T13:58:53.786Z,59.80
2022-10-18T14:01:26.097Z,59.70
2022-10-18T14:04:01.950Z,59.80
2022-10-18T14:06:32.753Z,59.70
2022-10-18T14:09:09.738Z,59.50
2022-10-18T14:12:04.956Z,59.20
2022-10-18T14:14:35.415Z,59.40
2022-10-18T14:17:16.886Z,59.40
2022-10-18T14:19:45.150Z,58.90
2022-10-18T14:22:22.260Z,58.40
2022-10-18T14:24:50.019Z,58.50
2022-10-18T14:27:17.912Z,58.60
2022-10-18T14:29:44.673Z,58.80
2022-10-18T14:32:12.145Z,58.70
2022-10-18T14:34:38.935Z,58.60
2022-10-18T14:37:05.671Z,58.80
2022-10-18T14:39:33.414Z,58.50
2022-10-18T14:42:00.247Z,59.00
2022-10-18T14:44:27.695Z,58.80
2022-10-18T14:47:01.557Z,58.70
2022-10-18T14:49:28.312Z,58.80
2022-10-18T14:51:56.051Z,59.10
2022-10-18T14:54:26.097Z,59.30
2022-10-18T14:56:55.774Z,59.30
2022-10-18T14:59:23.749Z,59.00
2022-10-18T15:02:00.751Z,59.40
2022-10-18T15:04:32.908Z,59.80
2022-10-18T15:07:06.297Z,59.70
2022-10-18T15:09:33.490Z,59.90
2022-10-18T15:12:00.760Z,59.90
2022-10-18T15:14:27.814Z,60.00
2022-10-18T15:16:56.333Z,60.40
2022-10-18T15:19:30.720Z,60.60
2022-10-18T15:25:02.757Z,61.20
2022-10-18T15:27:31.484Z,61.40
2022-10-18T15:30:00.805Z,61.80
2022-10-18T15:32:28.518Z,62.10
2022-10-18T15:34:55.380Z,62.40
2022-10-18T15:37:33.431Z,62.50
2022-10-18T15:40:36.118Z,62.50
2022-10-18T15:43:05.894Z,63.80
2022-10-18T15:45:33.875Z,65.10
2022-10-18T15:48:03.487Z,66.20
2022-10-18T15:50:41.037Z,66.80
2022-10-18T15:53:28.074Z,67.10
2022-10-18T15:56:07.790Z,67.50
2022-10-18T15:58:39.238Z,68.20
2022-10-18T16:01:07.433Z,68.90
2022-10-18T16:03:34.794Z,69.80
2022-10-18T16:06:07.483Z,70.20
2022-10-18T16:08:40.566Z,70.80
2022-10-18T16:11:14.903Z,71.40
2022-10-18T16:13:41.873Z,71.80
2022-10-18T16:16:11.458Z,72.10
2022-10-18T16:18:38.259Z,72.50
2022-10-18T16:21:05.099Z,72.80
2022-10-18T16:23:31.843Z,73.10
2022-10-18T16:25:58.574Z,73.40
2022-10-18T16:28:25.477Z,73.40
2022-10-18T16:30:56.596Z,74.20
2022-10-18T16:33:23.548Z,74.50
2022-10-18T16:35:50.366Z,74.80
2022-10-18T16:38:23.275Z,75.00
2022-10-18T16:40:50.060Z,75.60
2022-10-18T16:43:16.782Z,76.30
2022-10-18T16:45:43.591Z,77.00
2022-10-18T16:48:13.333Z,78.20
2022-10-18T16:50:40.122Z,79.10
2022-10-18T16:53:06.871Z,79.90
2022-10-18T16:55:34.211Z,80.80
2022-10-18T16:58:00.954Z,81.60
2022-10-18T17:00:27.761Z,82.60
2022-10-18T17:02:54.562Z,83.20
2022-10-18T17:05:21.361Z,84.20
2022-10-18T17:07:48.207Z,85.70
2022-10-18T17:10:16.203Z,86.40
2022-10-18T17:12:42.966Z,87.60
2022-10-18T17:15:10.047Z,88.40
2022-10-18T17:17:36.836Z,89.20
2022-10-18T17:20:03.999Z,90.00
2022-10-18T17:22:30.736Z,90.30
2022-10-18T17:24:57.477Z,91.30
2022-10-18T17:27:24.250Z,91.60
2022-10-18T17:29:50.952Z,92.40
2022-10-18T17:32:17.716Z,93.00
2022-10-18T17:34:44.426Z,93.40
2022-10-18T17:37:11.144Z,93.60
2022-10-18T17:39:38.408Z,94.40
2022-10-18T17:42:05.152Z,94.70
2022-10-18T17:44:31.850Z,95.30
2022-10-18T17:46:58.598Z,96.50
2022-10-18T17:49:25.333Z,98.00
2022-10-18T17:51:52.145Z,98.30
2022-10-18T17:54:18.867Z,98.90
2022-10-18T17:56:45.597Z,99.20
2022-10-18T17:59:12.382Z,99.30
2022-10-18T18:01:39.219Z,99.60
2022-10-18T18:04:06.136Z,99.80
2022-10-18T18:06:36.182Z,99.90
2022-10-18T18:09:05.030Z,99.90
2022-10-18T18:11:31.756Z,99.90
2022-10-18T18:13:58.645Z,99.90
2022-10-18T18:16:26.557Z,99.90
2022-10-18T18:18:53.969Z,99.90
2022-10-18T18:21:20.705Z,99.90
2022-10-18T18:23:47.596Z,99.90
2022-10-18T18:26:14.355Z,99.90
2022-10-18T18:28:41.220Z,99.90
2022-10-18T18:31:08.583Z,99.90
2022-10-18T18:33:35.709Z,99.90
2022-10-18T18:36:04.915Z,99.90
2022-10-18T18:38:31.721Z,99.90
2022-10-18T18:41:04.620Z,99.90
2022-10-18T18:43:31.359Z,99.90
2022-10-18T18:45:58.229Z,99.90
2022-10-18T18:48:25.899Z,99.90
2022-10-18T18:50:52.765Z,99.90
2022-10-18T18:53:19.514Z,99.90
2022-10-18T18:55:46.317Z,99.90
2022-10-18T18:58:13.127Z,99.90
2022-10-18T19:00:43.428Z,99.90
2022-10-18T19:03:11.378Z,99.90
2022-10-18T19:05:38.091Z,99.90
2022-10-18T19:08:04.846Z,99.90
2022-10-18T19:10:31.612Z,99.90
2022-10-18T19:12:58.581Z,99.90
2022-10-18T19:15:25.422Z,99.90
2022-10-18T19:17:52.194Z,99.90
2022-10-18T19:20:18.939Z,99.90
2022-10-18T19:22:46.009Z,99.90
2022-10-18T19:25:12.773Z,99.90
2022-10-18T19:27:39.592Z,99.90
2022-10-18T19:30:08.053Z,99.90
2022-10-18T19:32:34.923Z,99.90
2022-10-18T19:35:02.014Z,99.90
2022-10-18T19:37:28.810Z,99.90
2022-10-18T19:39:55.560Z,99.90
2022-10-18T19:42:26.115Z,99.90
2022-10-18T19:44:54.443Z,99.90
2022-10-18T19:47:21.221Z,99.90
2022-10-18T19:49:48.222Z,99.90
2022-10-18T19:52:15.031Z,99.90
2022-10-18T19:54:41.816Z,99.90
2022-10-18T19:57:08.781Z,99.90
2022-10-18T19:59:36.147Z,99.90
2022-10-18T20:02:04.786Z,99.90
2022-10-18T20:04:34.581Z,99.90
2022-10-18T20:07:02.804Z,99.90
2022-10-18T20:09:29.862Z,99.90
2022-10-18T20:11:56.597Z,99.90
2022-10-18T20:14:23.376Z,99.90
2022-10-18T20:16:50.203Z,99.90
2022-10-18T20:19:16.940Z,99.90
2022-10-18T20:21:43.680Z,99.90
2022-10-18T20:24:10.599Z,99.90
2022-10-18T20:26:37.395Z,99.90
2022-10-18T20:29:04.241Z,99.90
2022-10-18T20:31:31.846Z,99.90
2022-10-18T20:33:59.514Z,99.90
2022-10-18T20:36:26.553Z,99.90
2022-10-18T20:38:53.476Z,99.90
2022-10-18T20:41:29.965Z,99.90
2022-10-18T20:44:00.666Z,99.90
2022-10-18T20:46:27.656Z,99.90
2022-10-18T20:48:54.591Z,99.90
2022-10-18T20:51:21.561Z,99.90
2022-10-18T20:53:48.353Z,99.90
2022-10-18T20:56:20.385Z,99.90
2022-10-18T20:58:47.822Z,99.90
2022-10-18T21:01:20.387Z,99.90
2022-10-18T21:03:47.591Z,99.90
2022-10-18T21:06:15.271Z,99.90
2022-10-18T21:08:42.166Z,99.90
2022-10-18T21:11:08.939Z,99.90
2022-10-18T21:13:35.830Z,99.90
2022-10-18T21:16:02.654Z,99.90
2022-10-18T21:18:29.955Z,99.90
2022-10-18T21:20:57.015Z,99.90
2022-10-18T21:23:23.758Z,99.90
2022-10-18T21:25:50.529Z,99.90
2022-10-18T21:28:17.291Z,99.90
2022-10-18T21:30:44.020Z,99.90
2022-10-18T21:33:10.765Z,99.90
2022-10-18T21:35:37.849Z,99.90
2022-10-18T21:38:04.941Z,99.90
2022-10-18T21:40:31.902Z,99.90
2022-10-18T21:42:58.624Z,99.90
2022-10-18T21:45:25.397Z,99.90
2022-10-18T21:47:52.130Z,99.90
2022-10-18T21:50:18.890Z,99.90
2022-10-18T21:52:45.607Z,99.90
2022-10-18T21:55:12.425Z,99.90
2022-10-18T21:57:39.270Z,99.90
2022-10-18T22:00:06.379Z,99.90
2022-10-18T22:02:33.395Z,99.90
2022-10-18T22:05:00.284Z,99.90
2022-10-18T22:07:27.052Z,99.90
2022-10-18T22:09:53.784Z,99.90
2022-10-18T22:12:20.543Z,99.90
2022-10-18T22:14:47.464Z,99.90
2022-10-18T22:17:14.265Z,99.90
2022-10-18T22:19:41.191Z,99.90
2022-10-18T22:22:07.917Z,99.90
2022-10-18T22:27:06.295Z,99.90
2022-10-18T22:29:33.030Z,99.90
2022-10-18T22:32:01.854Z,99.90
2022-10-18T22:34:28.651Z,99.90
2022-10-18T22:36:55.399Z,99.90
2022-10-18T22:39:22.196Z,99.90
2022-10-18T22:41:54.291Z,99.90
2022-10-18T22:44:21.068Z,99.90
2022-10-18T22:46:47.775Z,99.90
2022-10-18T22:49:14.587Z,99.90
2022-10-18T22:51:41.353Z,99.90
2022-10-18T22:54:08.167Z,99.90
2022-10-18T22:56:34.887Z,99.90
2022-10-18T22:59:01.679Z,99.90
2022-10-18T23:01:28.495Z,99.90
2022-10-18T23:03:55.687Z,99.90
2022-10-18T23:06:24.144Z,99.90
2022-10-18T23:08:51.125Z,99.90
2022-10-18T23:11:18.031Z,99.90
2022-10-18T23:13:44.833Z,99.90
2022-10-18T23:16:11.724Z,99.90
2022-10-18T23:21:07.097Z,99.90
2022-10-18T23:23:35.620Z,99.90
2022-10-18T23:26:03.339Z,99.90
2022-10-18T23:28:30.165Z,99.90
2022-10-18T23:30:56.923Z,99.90
2022-10-18T23:33:23.742Z,99.90
2022-10-18T23:35:50.486Z,99.90
2022-10-18T23:38:17.227Z,99.90
2022-10-18T23:40:43.954Z,99.90
2022-10-18T23:43:10.666Z,99.90
2022-10-18T23:45:37.650Z,99.90
2022-10-18T23:48:04.434Z,99.90
2022-10-18T23:50:31.147Z,99.90
2022-10-18T23:52:58.005Z,99.90
2022-10-18T23:55:24.734Z,99.90
2022-10-18T23:57:51.474Z,99.90
